ARA227 GABS-DFFD
Flight info
| Callsign | ARA227 |
|---|---|
| Flight time | 0h 57m |
| Altitude | 35000 |
| Route | EDGIB UG860 GUPOV TIXOT1K |
| Aircraft | B737/M-SDE2E3FGHIRWXY/LB1 |
Departure
| Time | 2026-05-08 09:22 |
|---|---|
| Airport | Modibo Keita International Airport (GABS) |
Arrival
| Time | 2026-05-08 10:20 |
|---|---|
| Airport | Ouagadougou Thomas Sankara International Airport (DFFD) |
| Time | Latitude | Longitude | Altitude | Speed | Heading |
|---|---|---|---|---|---|
| 2026-05-08 09:09 | 12.54051 | -7.94553 | 1257 ft | 0 kts | 337° |
| 2026-05-08 09:19 | 12.54070 | -7.94546 | 1265 ft | 5 kts | 39° |
| 2026-05-08 09:20 | 12.54056 | -7.94507 | 1262 ft | 13 kts | 130° |
| 2026-05-08 09:20 | 12.53944 | -7.94428 | 1257 ft | 22 kts | 147° |
| 2026-05-08 09:20 | 12.53824 | -7.94339 | 1253 ft | 20 kts | 131° |
| 2026-05-08 09:20 | 12.53720 | -7.94429 | 1249 ft | 53 kts | 236° |
| 2026-05-08 09:21 | 12.53339 | -7.95001 | 1249 ft | 134 kts | 237° |
| 2026-05-08 09:21 | 12.52775 | -7.95882 | 1473 ft | 153 kts | 235° |
| 2026-05-08 09:22 | 12.47534 | -7.97421 | 3875 ft | 249 kts | 102° |
| 2026-05-08 09:23 | 12.47669 | -7.95593 | 4091 ft | 271 kts | 73° |
| 2026-05-08 09:23 | 12.47852 | -7.94998 | 4245 ft | 274 kts | 70° |
| 2026-05-08 09:23 | 12.48159 | -7.94136 | 4526 ft | 278 kts | 68° |
| 2026-05-08 09:23 | 12.48881 | -7.92287 | 5148 ft | 282 kts | 67° |
| 2026-05-08 09:24 | 12.49626 | -7.90443 | 5837 ft | 283 kts | 67° |
| 2026-05-08 09:24 | 12.50350 | -7.88558 | 6674 ft | 281 kts | 71° |
| 2026-05-08 09:24 | 12.50937 | -7.86640 | 7403 ft | 283 kts | 76° |
| 2026-05-08 09:24 | 12.51378 | -7.84678 | 8219 ft | 283 kts | 81° |
| 2026-05-08 09:25 | 12.51671 | -7.82862 | 8976 ft | 285 kts | 84° |
| 2026-05-08 09:25 | 12.51902 | -7.80826 | 9720 ft | 286 kts | 86° |
| 2026-05-08 09:25 | 12.52056 | -7.78803 | 10344 ft | 295 kts | 88° |
| 2026-05-08 09:25 | 12.52164 | -7.76611 | 10526 ft | 321 kts | 89° |
| 2026-05-08 09:26 | 12.52233 | -7.74245 | 10686 ft | 344 kts | 90° |
| 2026-05-08 09:26 | 12.52269 | -7.71734 | 10998 ft | 360 kts | 90° |
| 2026-05-08 09:26 | 12.52279 | -7.69145 | 11588 ft | 366 kts | 91° |
| 2026-05-08 09:26 | 12.52271 | -7.66541 | 12347 ft | 366 kts | 91° |
| 2026-05-08 09:27 | 12.52251 | -7.63924 | 13064 ft | 369 kts | 91° |
| 2026-05-08 09:27 | 12.52222 | -7.61288 | 13744 ft | 372 kts | 91° |
| 2026-05-08 09:27 | 12.52187 | -7.58623 | 14325 ft | 376 kts | 91° |
| 2026-05-08 09:27 | 12.52149 | -7.55930 | 14881 ft | 380 kts | 91° |
| 2026-05-08 09:28 | 12.52110 | -7.53206 | 15426 ft | 385 kts | 91° |
| 2026-05-08 09:28 | 12.52068 | -7.50456 | 15974 ft | 389 kts | 91° |
| 2026-05-08 09:28 | 12.52026 | -7.47676 | 16524 ft | 392 kts | 91° |
| 2026-05-08 09:28 | 12.51982 | -7.44867 | 17045 ft | 396 kts | 91° |
| 2026-05-08 09:29 | 12.51939 | -7.42068 | 17561 ft | 400 kts | 91° |
| 2026-05-08 09:29 | 12.51894 | -7.39211 | 18083 ft | 403 kts | 91° |
| 2026-05-08 09:29 | 12.51848 | -7.36328 | 18530 ft | 407 kts | 91° |
| 2026-05-08 09:29 | 12.51802 | -7.33421 | 18954 ft | 410 kts | 91° |
| 2026-05-08 09:30 | 12.51756 | -7.30493 | 19384 ft | 413 kts | 91° |
| 2026-05-08 09:30 | 12.51709 | -7.27546 | 19794 ft | 416 kts | 91° |
| 2026-05-08 09:30 | 12.51661 | -7.24572 | 20166 ft | 420 kts | 91° |
| 2026-05-08 09:30 | 12.51612 | -7.21577 | 20579 ft | 422 kts | 91° |
| 2026-05-08 09:31 | 12.51563 | -7.18560 | 20960 ft | 425 kts | 92° |
| 2026-05-08 09:31 | 12.51513 | -7.15523 | 21319 ft | 429 kts | 91° |
| 2026-05-08 09:31 | 12.51462 | -7.12458 | 21681 ft | 432 kts | 91° |
| 2026-05-08 09:31 | 12.51411 | -7.09371 | 22021 ft | 435 kts | 91° |
| 2026-05-08 09:32 | 12.51359 | -7.06265 | 22362 ft | 438 kts | 91° |
| 2026-05-08 09:32 | 12.51306 | -7.03137 | 22703 ft | 441 kts | 91° |
| 2026-05-08 09:32 | 12.51271 | -7.01047 | 22919 ft | 443 kts | 91° |
| 2026-05-08 09:32 | 12.51216 | -6.97882 | 23246 ft | 446 kts | 91° |
| 2026-05-08 09:33 | 12.51144 | -6.93661 | 23624 ft | 450 kts | 91° |
| 2026-05-08 09:33 | 12.51106 | -6.91498 | 23802 ft | 452 kts | 91° |
| 2026-05-08 09:33 | 12.51049 | -6.88275 | 24076 ft | 454 kts | 91° |
| 2026-05-08 09:33 | 12.50974 | -6.83991 | 24424 ft | 456 kts | 92° |
| 2026-05-08 09:34 | 12.50935 | -6.81792 | 24600 ft | 458 kts | 92° |
| 2026-05-08 09:34 | 12.50877 | -6.78530 | 24846 ft | 460 kts | 92° |
| 2026-05-08 09:34 | 12.50799 | -6.74182 | 25158 ft | 463 kts | 92° |
| 2026-05-08 09:34 | 12.50759 | -6.71949 | 25316 ft | 464 kts | 92° |
| 2026-05-08 09:35 | 12.50698 | -6.68639 | 25553 ft | 466 kts | 92° |
| 2026-05-08 09:35 | 12.50638 | -6.65318 | 25798 ft | 468 kts | 92° |
| 2026-05-08 09:35 | 12.50576 | -6.61981 | 26039 ft | 470 kts | 92° |
| 2026-05-08 09:35 | 12.50515 | -6.58680 | 26246 ft | 472 kts | 92° |
| 2026-05-08 09:36 | 12.50452 | -6.55320 | 26475 ft | 473 kts | 92° |
| 2026-05-08 09:36 | 12.50388 | -6.51943 | 26692 ft | 475 kts | 92° |
| 2026-05-08 09:36 | 12.50325 | -6.48564 | 26897 ft | 477 kts | 92° |
| 2026-05-08 09:36 | 12.50260 | -6.45162 | 27094 ft | 478 kts | 92° |
| 2026-05-08 09:37 | 12.50195 | -6.41749 | 27301 ft | 480 kts | 92° |
| 2026-05-08 09:37 | 12.50129 | -6.38331 | 27491 ft | 481 kts | 92° |
| 2026-05-08 09:37 | 12.50062 | -6.34899 | 27677 ft | 483 kts | 92° |
| 2026-05-08 09:37 | 12.49994 | -6.31458 | 27857 ft | 485 kts | 92° |
| 2026-05-08 09:38 | 12.49927 | -6.27999 | 28042 ft | 486 kts | 92° |
| 2026-05-08 09:38 | 12.49858 | -6.24543 | 28224 ft | 487 kts | 92° |
| 2026-05-08 09:38 | 12.49789 | -6.21065 | 28398 ft | 489 kts | 92° |
| 2026-05-08 09:38 | 12.49719 | -6.17589 | 28568 ft | 490 kts | 92° |
| 2026-05-08 09:39 | 12.49649 | -6.14094 | 28733 ft | 491 kts | 92° |
| 2026-05-08 09:39 | 12.49577 | -6.10592 | 28890 ft | 492 kts | 92° |
| 2026-05-08 09:39 | 12.49506 | -6.07132 | 29061 ft | 493 kts | 92° |
| 2026-05-08 09:39 | 12.49434 | -6.03618 | 29265 ft | 493 kts | 92° |
| 2026-05-08 09:40 | 12.49362 | -6.00107 | 29512 ft | 492 kts | 92° |
| 2026-05-08 09:40 | 12.49289 | -5.96609 | 29764 ft | 492 kts | 92° |
| 2026-05-08 09:40 | 12.49216 | -5.93108 | 30011 ft | 491 kts | 92° |
| 2026-05-08 09:40 | 12.49142 | -5.89620 | 30232 ft | 491 kts | 92° |
| 2026-05-08 09:41 | 12.49068 | -5.86125 | 30455 ft | 491 kts | 92° |
| 2026-05-08 09:41 | 12.48994 | -5.82635 | 30674 ft | 491 kts | 92° |
| 2026-05-08 09:41 | 12.48919 | -5.79143 | 30891 ft | 491 kts | 92° |
| 2026-05-08 09:41 | 12.48843 | -5.75651 | 31101 ft | 491 kts | 92° |
| 2026-05-08 09:42 | 12.48767 | -5.72155 | 31349 ft | 491 kts | 92° |
| 2026-05-08 09:42 | 12.48691 | -5.68666 | 31607 ft | 490 kts | 92° |
| 2026-05-08 09:42 | 12.48614 | -5.65173 | 31851 ft | 490 kts | 92° |
| 2026-05-08 09:42 | 12.48538 | -5.61728 | 32116 ft | 490 kts | 92° |
| 2026-05-08 09:43 | 12.48460 | -5.58240 | 32387 ft | 490 kts | 92° |
| 2026-05-08 09:43 | 12.48382 | -5.54754 | 32672 ft | 490 kts | 92° |
| 2026-05-08 09:43 | 12.48304 | -5.51270 | 32938 ft | 490 kts | 92° |
| 2026-05-08 09:43 | 12.48225 | -5.47789 | 33201 ft | 490 kts | 92° |
| 2026-05-08 09:44 | 12.48146 | -5.44300 | 33498 ft | 490 kts | 92° |
| 2026-05-08 09:44 | 12.48066 | -5.40824 | 33856 ft | 488 kts | 91° |
| 2026-05-08 09:44 | 12.47986 | -5.37347 | 34135 ft | 488 kts | 91° |
| 2026-05-08 09:44 | 12.47906 | -5.33875 | 34391 ft | 488 kts | 91° |
| 2026-05-08 09:45 | 12.47825 | -5.30407 | 34636 ft | 488 kts | 91° |
| 2026-05-08 09:45 | 12.47744 | -5.26938 | 34871 ft | 488 kts | 91° |
| 2026-05-08 09:45 | 12.47662 | -5.23453 | 34913 ft | 491 kts | 91° |
| 2026-05-08 09:46 | 12.47496 | -5.16474 | 34916 ft | 489 kts | 91° |
| 2026-05-08 09:46 | 12.47330 | -5.09537 | 34922 ft | 487 kts | 91° |
| 2026-05-08 09:47 | 12.47162 | -5.02614 | 34923 ft | 486 kts | 91° |
| 2026-05-08 09:47 | 12.46993 | -4.95698 | 34922 ft | 486 kts | 91° |
| 2026-05-08 09:48 | 12.46823 | -4.88830 | 34927 ft | 486 kts | 91° |
| 2026-05-08 09:48 | 12.46649 | -4.81898 | 34925 ft | 487 kts | 91° |
| 2026-05-08 09:49 | 12.46474 | -4.74961 | 34930 ft | 488 kts | 91° |
| 2026-05-08 09:49 | 12.46297 | -4.68010 | 34930 ft | 489 kts | 91° |
| 2026-05-08 09:50 | 12.46117 | -4.61052 | 34935 ft | 489 kts | 91° |
| 2026-05-08 09:50 | 12.45936 | -4.54085 | 34929 ft | 490 kts | 91° |
| 2026-05-08 09:51 | 12.45736 | -4.47160 | 34935 ft | 490 kts | 91° |
| 2026-05-08 09:51 | 12.45507 | -4.40183 | 34930 ft | 490 kts | 91° |
| 2026-05-08 09:52 | 12.45276 | -4.33218 | 34930 ft | 490 kts | 91° |
| 2026-05-08 09:52 | 12.45047 | -4.26244 | 34930 ft | 490 kts | 91° |
| 2026-05-08 09:53 | 12.44818 | -4.19275 | 34931 ft | 490 kts | 91° |
| 2026-05-08 09:53 | 12.44588 | -4.12302 | 34926 ft | 490 kts | 91° |
| 2026-05-08 09:54 | 12.44356 | -4.05338 | 34921 ft | 490 kts | 91° |
| 2026-05-08 09:54 | 12.44122 | -3.98376 | 34924 ft | 489 kts | 91° |
| 2026-05-08 09:55 | 12.43886 | -3.91418 | 34919 ft | 489 kts | 91° |
| 2026-05-08 09:55 | 12.43649 | -3.84460 | 34916 ft | 489 kts | 91° |
| 2026-05-08 09:56 | 12.43410 | -3.77512 | 34920 ft | 489 kts | 91° |
| 2026-05-08 09:56 | 12.43171 | -3.70602 | 34917 ft | 489 kts | 91° |
| 2026-05-08 09:57 | 12.42807 | -3.60178 | 34913 ft | 488 kts | 91° |
| 2026-05-08 09:57 | 12.42562 | -3.53240 | 34912 ft | 488 kts | 91° |
| 2026-05-08 09:58 | 12.42316 | -3.46304 | 34912 ft | 487 kts | 91° |
| 2026-05-08 09:58 | 12.42068 | -3.39375 | 34911 ft | 487 kts | 91° |
| 2026-05-08 09:59 | 12.41818 | -3.32446 | 34911 ft | 487 kts | 91° |
| 2026-05-08 09:59 | 12.41567 | -3.25521 | 34915 ft | 487 kts | 91° |
| 2026-05-08 10:00 | 12.41314 | -3.18599 | 34915 ft | 487 kts | 91° |
| 2026-05-08 10:00 | 12.41060 | -3.11676 | 34916 ft | 487 kts | 91° |
| 2026-05-08 10:01 | 12.40805 | -3.04791 | 34908 ft | 487 kts | 91° |
| 2026-05-08 10:01 | 12.40545 | -2.97826 | 34914 ft | 487 kts | 91° |
| 2026-05-08 10:02 | 12.40286 | -2.90931 | 34917 ft | 488 kts | 91° |
| 2026-05-08 10:02 | 12.40024 | -2.83987 | 34914 ft | 489 kts | 91° |
| 2026-05-08 10:03 | 12.39759 | -2.77028 | 34476 ft | 495 kts | 91° |
| 2026-05-08 10:03 | 12.39624 | -2.73492 | 33547 ft | 498 kts | 91° |
| 2026-05-08 10:03 | 12.39487 | -2.69963 | 32784 ft | 495 kts | 91° |
| 2026-05-08 10:04 | 12.39350 | -2.66447 | 31724 ft | 497 kts | 92° |
| 2026-05-08 10:04 | 12.39212 | -2.62917 | 30871 ft | 495 kts | 92° |
| 2026-05-08 10:04 | 12.39075 | -2.59407 | 29834 ft | 495 kts | 92° |
| 2026-05-08 10:04 | 12.38937 | -2.55898 | 28789 ft | 492 kts | 92° |
| 2026-05-08 10:05 | 12.38798 | -2.52393 | 27457 ft | 494 kts | 93° |
| 2026-05-08 10:05 | 12.38660 | -2.48887 | 26275 ft | 493 kts | 93° |
| 2026-05-08 10:05 | 12.38521 | -2.45394 | 25342 ft | 488 kts | 93° |
| 2026-05-08 10:05 | 12.38384 | -2.41944 | 24442 ft | 483 kts | 93° |
| 2026-05-08 10:06 | 12.38249 | -2.38540 | 23596 ft | 477 kts | 93° |
| 2026-05-08 10:06 | 12.38114 | -2.35168 | 22687 ft | 470 kts | 93° |
| 2026-05-08 10:06 | 12.37981 | -2.31860 | 21725 ft | 464 kts | 93° |
| 2026-05-08 10:06 | 12.37850 | -2.28597 | 20933 ft | 454 kts | 92° |
| 2026-05-08 10:07 | 12.37720 | -2.25386 | 20044 ft | 449 kts | 92° |
| 2026-05-08 10:07 | 12.37591 | -2.22215 | 19224 ft | 443 kts | 92° |
| 2026-05-08 10:07 | 12.37464 | -2.19086 | 18381 ft | 438 kts | 92° |
| 2026-05-08 10:07 | 12.37338 | -2.15996 | 17548 ft | 431 kts | 92° |
| 2026-05-08 10:08 | 12.37214 | -2.12961 | 16644 ft | 425 kts | 92° |
| 2026-05-08 10:08 | 12.37092 | -2.09980 | 15890 ft | 415 kts | 92° |
| 2026-05-08 10:08 | 12.36972 | -2.07041 | 15148 ft | 408 kts | 92° |
| 2026-05-08 10:08 | 12.36853 | -2.04157 | 14302 ft | 404 kts | 92° |
| 2026-05-08 10:09 | 12.36738 | -2.01360 | 13524 ft | 397 kts | 92° |
| 2026-05-08 10:09 | 12.36622 | -1.98561 | 12762 ft | 389 kts | 92° |
| 2026-05-08 10:09 | 12.36510 | -1.95806 | 12105 ft | 383 kts | 91° |
| 2026-05-08 10:09 | 12.36747 | -1.93146 | 11895 ft | 371 kts | 77° |
| 2026-05-08 10:10 | 12.37655 | -1.90717 | 11466 ft | 361 kts | 67° |
| 2026-05-08 10:10 | 12.38685 | -1.88420 | 11096 ft | 349 kts | 66° |
| 2026-05-08 10:10 | 12.39690 | -1.86199 | 10745 ft | 339 kts | 66° |
| 2026-05-08 10:10 | 12.40663 | -1.84037 | 10405 ft | 329 kts | 67° |
| 2026-05-08 10:11 | 12.41603 | -1.81931 | 10082 ft | 321 kts | 67° |
| 2026-05-08 10:11 | 12.42509 | -1.79885 | 9842 ft | 310 kts | 68° |
| 2026-05-08 10:11 | 12.43370 | -1.77935 | 9850 ft | 291 kts | 68° |
| 2026-05-08 10:11 | 12.44176 | -1.76103 | 9800 ft | 276 kts | 68° |
| 2026-05-08 10:12 | 12.44949 | -1.74344 | 9623 ft | 267 kts | 68° |
| 2026-05-08 10:12 | 12.45695 | -1.72641 | 9251 ft | 266 kts | 68° |
| 2026-05-08 10:12 | 12.46452 | -1.70910 | 8851 ft | 267 kts | 67° |
| 2026-05-08 10:12 | 12.47210 | -1.69178 | 8468 ft | 267 kts | 67° |
| 2026-05-08 10:13 | 12.47968 | -1.67448 | 8124 ft | 266 kts | 66° |
| 2026-05-08 10:13 | 12.48726 | -1.65715 | 7761 ft | 267 kts | 66° |
| 2026-05-08 10:13 | 12.49484 | -1.63982 | 7445 ft | 266 kts | 66° |
| 2026-05-08 10:13 | 12.50239 | -1.62256 | 7107 ft | 265 kts | 66° |
| 2026-05-08 10:14 | 12.50993 | -1.60532 | 6763 ft | 266 kts | 65° |
| 2026-05-08 10:14 | 12.51749 | -1.58802 | 6432 ft | 267 kts | 64° |
| 2026-05-08 10:14 | 12.52504 | -1.57078 | 6128 ft | 265 kts | 65° |
| 2026-05-08 10:14 | 12.53257 | -1.55359 | 5861 ft | 264 kts | 64° |
| 2026-05-08 10:15 | 12.54007 | -1.53643 | 5592 ft | 264 kts | 64° |
| 2026-05-08 10:15 | 12.54757 | -1.51930 | 5317 ft | 263 kts | 64° |
| 2026-05-08 10:15 | 12.55172 | -1.50122 | 5042 ft | 264 kts | 91° |
| 2026-05-08 10:15 | 12.54716 | -1.48322 | 4744 ft | 263 kts | 118° |
| 2026-05-08 10:16 | 12.53744 | -1.46745 | 4487 ft | 262 kts | 124° |
| 2026-05-08 10:16 | 12.52728 | -1.45204 | 4197 ft | 261 kts | 125° |
| 2026-05-08 10:16 | 12.51654 | -1.43711 | 3956 ft | 262 kts | 137° |
| 2026-05-08 10:16 | 12.50090 | -1.42784 | 3687 ft | 263 kts | 168° |
| 2026-05-08 10:17 | 12.48311 | -1.42760 | 3352 ft | 261 kts | 198° |
| 2026-05-08 10:17 | 12.46684 | -1.43508 | 3101 ft | 258 kts | 212° |
| 2026-05-08 10:17 | 12.45203 | -1.44475 | 2880 ft | 245 kts | 215° |
| 2026-05-08 10:17 | 12.43907 | -1.45414 | 2688 ft | 219 kts | 216° |
| 2026-05-08 10:18 | 12.42703 | -1.46252 | 2485 ft | 200 kts | 214° |
| 2026-05-08 10:18 | 12.41605 | -1.47000 | 2344 ft | 180 kts | 216° |
| 2026-05-08 10:18 | 12.40606 | -1.47683 | 2179 ft | 162 kts | 219° |
| 2026-05-08 10:18 | 12.39721 | -1.48291 | 2013 ft | 144 kts | 211° |
| 2026-05-08 10:19 | 12.38899 | -1.48790 | 1756 ft | 130 kts | 214° |
| 2026-05-08 10:19 | 12.38155 | -1.49285 | 1416 ft | 136 kts | 213° |
| 2026-05-08 10:19 | 12.37365 | -1.49829 | 1272 ft | 136 kts | 209° |
| 2026-05-08 10:20 | 12.36061 | -1.50743 | 1003 ft | 128 kts | 210° |
| 2026-05-08 10:20 | 12.35446 | -1.51149 | 1007 ft | 76 kts | 213° |
| 2026-05-08 10:20 | 12.35164 | -1.51335 | 1011 ft | 32 kts | 214° |
| 2026-05-08 10:20 | 12.35007 | -1.51454 | 1015 ft | 19 kts | 244° |
| 2026-05-08 10:21 | 12.35056 | -1.51569 | 1007 ft | 11 kts | 327° |
| 2026-05-08 10:21 | 12.35124 | -1.51536 | 1006 ft | 11 kts | 38° |
| 2026-05-08 10:21 | 12.35188 | -1.51495 | 1005 ft | 11 kts | 10° |
| 2026-05-08 10:21 | 12.35249 | -1.51514 | 1004 ft | 5 kts | 351° |
| 2026-05-08 10:22 | 12.35261 | -1.51496 | 1004 ft | 4 kts | 87° |
| 2026-05-08 10:22 | 12.35261 | -1.51494 | 1004 ft | 0 kts | 87° |
| 2026-05-08 10:27 | 12.35261 | -1.51495 | 1004 ft | 0 kts | 87° |